Chernyakhovsk, Russia
Current Conditions -  °F | °C
As of 6:00 PM on Thursday 30 Oct 2014 (Local Time) from UMKK Reporting Station
Broken Clouds Broken Clouds  
Wind Chill: 38°   Ceiling: 20000
Heat Index: 41°   Visibility: 6mi
Dew Point: 36°   Wind: 4mph
Humidity: 81%   Direction: 280°W
Pressure: 30.24"   Gusts: NA
Location:  54.63°N, 21.81°E
Report Text: UMKK 301600Z 28002MPS 9999 SCT021 BKN200 05/02 Q1024 R24/CLRD70NOSIG RMK QFE767/1022
Loading
Personal Weather Stations






























Interactive Weather Map
Tropical Storm Tracking
New forecast layout! Learn more

10-Day Weather Forecast

Advertisements
Track Severe Weather on mobile